createdAt,value
2019-02-24T00:00:44.942Z,4.20
2019-02-24T00:01:58.433Z,4.10
2019-02-24T00:03:27.037Z,4.10
2019-02-24T00:04:36.918Z,4.10
2019-02-24T00:05:46.967Z,4.10
2019-02-24T00:07:04.558Z,4.10
2019-02-24T00:08:15.932Z,4.10
2019-02-24T00:09:23.017Z,4.00
2019-02-24T00:10:28.438Z,4.10
2019-02-24T00:11:33.977Z,4.00
2019-02-24T00:12:39.466Z,4.00
2019-02-24T00:13:44.943Z,4.00
2019-02-24T00:14:50.378Z,4.00
2019-02-24T00:15:55.733Z,4.00
2019-02-24T00:17:01.247Z,4.00
2019-02-24T00:18:07.855Z,4.00
2019-02-24T00:19:13.427Z,4.00
2019-02-24T00:20:20.574Z,3.90
2019-02-24T00:21:26.159Z,3.90
2019-02-24T00:22:31.646Z,3.90
2019-02-24T00:23:42.506Z,3.90
2019-02-24T00:24:52.906Z,3.90
2019-02-24T00:26:04.747Z,3.90
2019-02-24T00:29:30.991Z,3.90
2019-02-24T00:30:52.029Z,3.80
2019-02-24T00:32:10.894Z,3.80
2019-02-24T00:33:18.843Z,3.80
2019-02-24T00:34:35.432Z,3.80
2019-02-24T00:35:43.361Z,3.70
2019-02-24T00:36:57.113Z,3.70
2019-02-24T00:38:03.835Z,3.70
2019-02-24T00:39:15.668Z,3.70
2019-02-24T00:40:23.638Z,3.70
2019-02-24T00:41:29.329Z,3.70
2019-02-24T00:42:34.658Z,3.70
2019-02-24T00:43:40.366Z,3.70
2019-02-24T00:44:46.268Z,3.70
2019-02-24T00:45:51.766Z,3.70
2019-02-24T00:47:01.181Z,3.70
2019-02-24T00:48:08.748Z,3.70
2019-02-24T00:49:13.969Z,3.70
2019-02-24T00:50:19.275Z,3.60
2019-02-24T00:51:24.762Z,3.60
2019-02-24T00:52:30.313Z,3.60
2019-02-24T00:53:35.726Z,3.60
2019-02-24T00:54:41.086Z,3.60
2019-02-24T00:55:46.474Z,3.60
2019-02-24T00:56:51.702Z,3.50
2019-02-24T00:57:57.003Z,3.50
2019-02-24T00:59:02.277Z,3.50
2019-02-24T01:00:08.565Z,3.50
2019-02-24T01:01:15.413Z,3.40
2019-02-24T01:02:20.662Z,3.50
2019-02-24T01:03:25.838Z,3.40
2019-02-24T01:04:31.092Z,3.40
2019-02-24T01:05:36.372Z,3.40
2019-02-24T01:06:41.579Z,3.40
2019-02-24T01:07:46.942Z,3.40
2019-02-24T01:08:52.248Z,3.40
2019-02-24T01:09:57.522Z,3.40
2019-02-24T01:11:02.831Z,3.40
2019-02-24T01:12:08.101Z,3.30
2019-02-24T01:13:13.336Z,3.30
2019-02-24T01:14:18.645Z,3.30
2019-02-24T01:15:23.972Z,3.30
2019-02-24T01:16:33.006Z,3.30
2019-02-24T01:17:38.193Z,3.30
2019-02-24T01:18:43.490Z,3.30
2019-02-24T01:19:59.424Z,3.30
2019-02-24T01:21:07.589Z,3.20
2019-02-24T01:22:12.851Z,3.30
2019-02-24T01:23:18.145Z,3.20
2019-02-24T01:24:23.386Z,3.20
2019-02-24T01:25:28.753Z,3.20
2019-02-24T01:26:34.060Z,3.10
2019-02-24T01:27:39.317Z,3.20
2019-02-24T01:28:44.520Z,3.10
2019-02-24T01:29:49.879Z,3.20
2019-02-24T01:30:55.162Z,3.20
2019-02-24T01:32:00.429Z,3.20
2019-02-24T01:33:05.682Z,3.10
2019-02-24T01:34:11.249Z,3.10
2019-02-24T01:35:16.607Z,3.10
2019-02-24T01:36:22.956Z,3.10
2019-02-24T01:37:28.286Z,3.10
2019-02-24T01:38:33.634Z,3.10
2019-02-24T01:39:38.946Z,3.10
2019-02-24T01:40:44.227Z,3.00
2019-02-24T01:41:49.544Z,3.00
2019-02-24T01:42:54.942Z,3.00
2019-02-24T01:44:00.235Z,3.00
2019-02-24T01:45:05.524Z,3.00
2019-02-24T01:46:10.841Z,3.10
2019-02-24T01:47:16.119Z,3.10
2019-02-24T01:48:21.297Z,3.10
2019-02-24T01:49:26.531Z,3.10
2019-02-24T01:50:31.807Z,3.10
2019-02-24T01:51:39.202Z,3.10
2019-02-24T01:52:44.281Z,3.10
2019-02-24T01:53:49.642Z,3.10
2019-02-24T01:55:01.764Z,3.10
2019-02-24T01:56:07.047Z,3.10
2019-02-24T01:57:12.217Z,3.10
2019-02-24T01:58:24.006Z,3.10
2019-02-24T01:59:30.352Z,3.00
2019-02-24T02:00:38.477Z,3.00
2019-02-24T02:01:43.791Z,3.00
2019-02-24T02:02:49.091Z,3.00
2019-02-24T02:03:54.366Z,3.00
2019-02-24T02:04:59.649Z,3.00
2019-02-24T02:06:04.987Z,3.00
2019-02-24T02:07:10.172Z,3.00
2019-02-24T02:08:16.639Z,3.00
2019-02-24T02:09:21.975Z,3.00
2019-02-24T02:10:29.877Z,3.00
2019-02-24T02:11:35.210Z,2.90
2019-02-24T02:12:40.493Z,2.90
2019-02-24T02:13:46.912Z,2.90
2019-02-24T02:14:52.492Z,2.90
2019-02-24T02:15:57.860Z,2.90
2019-02-24T02:17:04.413Z,2.90
2019-02-24T02:18:09.941Z,2.90
2019-02-24T02:19:23.007Z,2.90
2019-02-24T02:20:28.216Z,2.90
2019-02-24T02:21:36.286Z,2.90
2019-02-24T02:22:41.523Z,2.90
2019-02-24T02:23:46.767Z,2.90
2019-02-24T02:24:52.214Z,2.90
2019-02-24T02:26:01.982Z,2.90
2019-02-24T02:27:07.318Z,2.90
2019-02-24T02:28:13.088Z,2.90
2019-02-24T02:29:18.388Z,2.90
2019-02-24T02:30:23.719Z,2.80
2019-02-24T02:31:29.026Z,2.80
2019-02-24T02:32:34.307Z,2.80
2019-02-24T02:33:39.740Z,2.80
2019-02-24T02:34:45.686Z,2.80
2019-02-24T02:35:51.035Z,2.80
2019-02-24T02:36:56.430Z,2.80
2019-02-24T02:38:01.689Z,2.80
2019-02-24T02:39:10.111Z,2.80
2019-02-24T02:40:15.452Z,2.70
2019-02-24T02:41:21.621Z,2.70
2019-02-24T02:42:26.925Z,2.70
2019-02-24T02:43:32.299Z,2.70
2019-02-24T02:44:37.518Z,2.70
2019-02-24T02:45:42.886Z,2.70
2019-02-24T02:46:48.333Z,2.60
2019-02-24T02:47:53.727Z,2.60
2019-02-24T02:48:59.099Z,2.60
2019-02-24T02:50:07.505Z,2.60
2019-02-24T02:51:13.216Z,2.60
2019-02-24T02:52:20.503Z,2.50
2019-02-24T02:53:25.885Z,2.50
2019-02-24T02:54:34.382Z,2.50
2019-02-24T02:55:39.815Z,2.50
2019-02-24T02:56:45.164Z,2.50
2019-02-24T02:57:50.600Z,2.60
2019-02-24T02:58:55.895Z,2.50
2019-02-24T03:00:01.266Z,2.60
2019-02-24T03:01:08.057Z,2.60
2019-02-24T03:02:13.490Z,2.60
2019-02-24T03:03:18.824Z,2.60
2019-02-24T03:04:24.102Z,2.60
2019-02-24T03:05:29.308Z,2.50
2019-02-24T03:06:59.672Z,2.50
2019-02-24T03:08:07.957Z,2.50
2019-02-24T03:09:13.319Z,2.50
2019-02-24T03:10:18.590Z,2.50
2019-02-24T03:11:23.994Z,2.50
2019-02-24T03:12:34.114Z,2.50
2019-02-24T03:13:38.957Z,2.50
2019-02-24T03:14:44.232Z,2.50
2019-02-24T03:15:49.543Z,2.50
2019-02-24T03:16:55.077Z,2.60
2019-02-24T03:18:00.436Z,2.60
2019-02-24T03:19:07.506Z,2.60
2019-02-24T03:20:13.212Z,2.60
2019-02-24T03:21:19.843Z,2.60
2019-02-24T03:22:36.308Z,2.60
2019-02-24T03:23:43.367Z,2.60
2019-02-24T03:24:48.982Z,2.60
2019-02-24T03:26:01.751Z,2.60
2019-02-24T03:27:07.319Z,2.60
2019-02-24T03:28:12.867Z,2.60
2019-02-24T03:29:18.419Z,2.60
2019-02-24T03:30:25.560Z,2.60
2019-02-24T03:31:30.855Z,2.60
2019-02-24T03:32:36.229Z,2.60
2019-02-24T03:33:44.913Z,2.60
2019-02-24T03:34:49.159Z,2.60
2019-02-24T03:35:54.614Z,2.60
2019-02-24T03:37:00.009Z,2.60
2019-02-24T03:38:05.372Z,2.50
2019-02-24T03:39:10.548Z,2.50
2019-02-24T03:40:15.884Z,2.50
2019-02-24T03:41:21.213Z,2.60
2019-02-24T03:42:26.571Z,2.50
2019-02-24T03:43:31.900Z,2.50
2019-02-24T03:44:37.262Z,2.50
2019-02-24T03:45:43.596Z,2.50
2019-02-24T03:46:48.849Z,2.50
2019-02-24T03:47:54.101Z,2.50
2019-02-24T03:48:59.206Z,2.60
2019-02-24T03:50:04.978Z,2.60
2019-02-24T03:51:10.199Z,2.50
2019-02-24T03:52:15.482Z,2.50
2019-02-24T03:53:20.855Z,2.50
2019-02-24T03:54:26.186Z,2.50
2019-02-24T03:55:31.479Z,2.40
2019-02-24T03:56:36.822Z,2.40
2019-02-24T03:57:43.136Z,2.40
2019-02-24T03:58:48.462Z,2.40
2019-02-24T03:59:53.868Z,2.30
2019-02-24T04:00:59.199Z,2.30
2019-02-24T04:02:04.424Z,2.30
2019-02-24T04:03:09.805Z,2.30
2019-02-24T04:04:15.149Z,2.30
2019-02-24T04:05:20.479Z,2.30
2019-02-24T04:06:25.753Z,2.30
2019-02-24T04:07:31.100Z,2.30
2019-02-24T04:08:36.354Z,2.30
2019-02-24T04:09:41.643Z,2.30
2019-02-24T04:10:46.907Z,2.30
2019-02-24T04:11:52.105Z,2.30
2019-02-24T04:12:57.345Z,2.30
2019-02-24T04:14:02.636Z,2.30
2019-02-24T04:15:07.969Z,2.30
2019-02-24T04:16:13.242Z,2.30
2019-02-24T04:17:18.439Z,2.30
2019-02-24T04:18:23.696Z,2.30
2019-02-24T04:19:28.993Z,2.20
2019-02-24T04:20:34.296Z,2.20
2019-02-24T04:21:39.555Z,2.30
2019-02-24T04:22:44.720Z,2.20
2019-02-24T04:23:50.021Z,2.20
2019-02-24T04:24:55.341Z,2.20
2019-02-24T04:26:00.586Z,2.10
2019-02-24T04:27:05.871Z,2.10
2019-02-24T04:28:12.218Z,2.10
2019-02-24T04:29:24.579Z,2.10
2019-02-24T04:30:24.420Z,2.10
2019-02-24T04:31:29.705Z,2.10
2019-02-24T04:32:35.022Z,2.10
2019-02-24T04:33:40.136Z,2.10
2019-02-24T04:34:45.384Z,2.10
2019-02-24T04:35:50.665Z,2.00
2019-02-24T04:36:55.857Z,2.00
2019-02-24T04:38:01.076Z,2.00
2019-02-24T04:39:06.767Z,2.00
2019-02-24T04:40:12.074Z,2.00
2019-02-24T04:41:17.379Z,1.90
2019-02-24T04:42:22.654Z,1.90
2019-02-24T04:43:27.948Z,1.90
2019-02-24T04:44:33.262Z,2.00
2019-02-24T04:45:38.577Z,1.90
2019-02-24T04:46:43.778Z,2.00
2019-02-24T04:47:49.007Z,2.00
2019-02-24T04:48:54.341Z,2.00
2019-02-24T04:49:59.571Z,1.90
2019-02-24T04:51:04.849Z,1.90
2019-02-24T04:52:10.176Z,1.90
2019-02-24T04:53:15.548Z,1.90
2019-02-24T04:54:20.919Z,1.90
2019-02-24T04:55:26.209Z,1.90
2019-02-24T04:56:31.480Z,1.90
2019-02-24T04:57:36.767Z,1.90
2019-02-24T04:58:43.063Z,1.80
2019-02-24T04:59:48.276Z,1.80
2019-02-24T05:00:53.551Z,1.80
2019-02-24T05:01:58.792Z,1.80
2019-02-24T05:03:04.103Z,1.80
2019-02-24T05:04:09.397Z,1.80
2019-02-24T05:05:18.106Z,1.80
2019-02-24T05:06:23.255Z,1.80
2019-02-24T05:07:28.550Z,1.80
2019-02-24T05:08:33.813Z,1.80
2019-02-24T05:09:39.023Z,1.90
2019-02-24T05:10:44.196Z,1.80
2019-02-24T05:11:49.354Z,1.90
2019-02-24T05:12:54.555Z,1.90
2019-02-24T05:13:59.898Z,1.90
2019-02-24T05:15:05.811Z,1.90
2019-02-24T05:16:11.138Z,1.90
2019-02-24T05:17:16.535Z,1.90
2019-02-24T05:18:21.833Z,1.90
2019-02-24T05:19:27.186Z,1.90
2019-02-24T05:20:32.478Z,1.90
2019-02-24T05:21:37.808Z,1.90
2019-02-24T05:22:43.088Z,1.90
2019-02-24T05:23:48.413Z,1.90
2019-02-24T05:24:53.737Z,1.90
2019-02-24T05:25:59.025Z,1.90
2019-02-24T05:27:04.322Z,1.90
2019-02-24T05:28:09.671Z,2.00
2019-02-24T05:29:14.982Z,2.00
2019-02-24T05:30:20.312Z,1.90
2019-02-24T05:31:25.606Z,1.90
2019-02-24T05:32:30.861Z,1.90
2019-02-24T05:33:36.164Z,1.90
2019-02-24T05:34:41.497Z,1.90
2019-02-24T05:35:46.718Z,1.90
2019-02-24T05:36:51.982Z,1.90
2019-02-24T05:37:57.285Z,1.90
2019-02-24T05:39:02.610Z,1.80
2019-02-24T05:40:09.259Z,1.90
2019-02-24T05:41:14.494Z,1.90
2019-02-24T05:42:19.874Z,1.90
2019-02-24T05:43:25.173Z,1.90
2019-02-24T05:44:30.429Z,1.90
2019-02-24T05:45:35.787Z,1.90
2019-02-24T05:46:41.023Z,1.90
2019-02-24T05:47:46.306Z,1.90
2019-02-24T05:48:51.580Z,1.80
2019-02-24T05:49:56.884Z,1.80
2019-02-24T05:51:02.148Z,1.80
2019-02-24T05:52:07.473Z,1.80
2019-02-24T05:53:12.818Z,1.80
2019-02-24T05:54:18.154Z,1.80
2019-02-24T05:55:23.565Z,1.80
2019-02-24T05:56:28.888Z,1.80
2019-02-24T05:57:34.121Z,1.70
2019-02-24T05:58:39.354Z,1.70
2019-02-24T05:59:44.658Z,1.80
2019-02-24T06:00:49.965Z,1.80
2019-02-24T06:01:55.245Z,1.80
2019-02-24T06:03:00.497Z,1.80
2019-02-24T06:04:05.777Z,1.80
2019-02-24T06:05:11.088Z,1.80
2019-02-24T06:06:16.360Z,1.80
2019-02-24T06:07:21.678Z,1.70
2019-02-24T06:08:27.123Z,1.70
2019-02-24T06:09:32.416Z,1.70
2019-02-24T06:10:37.728Z,1.70
2019-02-24T06:11:42.914Z,1.70
2019-02-24T06:12:48.336Z,1.70
2019-02-24T06:13:53.721Z,1.70
2019-02-24T06:14:59.071Z,1.70
2019-02-24T06:16:04.318Z,1.60
2019-02-24T06:17:09.655Z,1.60
2019-02-24T06:18:14.939Z,1.50
2019-02-24T06:19:20.247Z,1.50
2019-02-24T06:20:25.626Z,1.50
2019-02-24T06:21:30.961Z,1.40
2019-02-24T06:22:36.316Z,1.40
2019-02-24T06:23:41.549Z,1.40
2019-02-24T06:24:46.926Z,1.40
2019-02-24T06:25:52.205Z,1.40
2019-02-24T06:26:57.401Z,1.40
2019-02-24T06:28:02.559Z,1.40
2019-02-24T06:29:07.910Z,1.40
2019-02-24T06:30:14.250Z,1.40
2019-02-24T06:31:19.456Z,1.40
2019-02-24T06:32:24.712Z,1.40
2019-02-24T06:33:29.973Z,1.40
2019-02-24T06:34:35.342Z,1.40
2019-02-24T06:35:40.654Z,1.40
2019-02-24T06:36:45.928Z,1.50
2019-02-24T06:37:51.276Z,1.50
2019-02-24T06:38:56.563Z,1.50
2019-02-24T06:40:01.899Z,1.50
2019-02-24T06:41:07.118Z,1.60
2019-02-24T06:42:12.436Z,1.60
2019-02-24T06:43:17.760Z,1.60
2019-02-24T06:44:23.236Z,1.60
2019-02-24T06:45:28.539Z,1.70
2019-02-24T06:46:33.767Z,1.60
2019-02-24T06:47:38.994Z,1.60
2019-02-24T06:48:44.409Z,1.70
2019-02-24T06:49:49.742Z,1.70
2019-02-24T06:51:06.840Z,1.70
2019-02-24T06:52:12.167Z,1.70
2019-02-24T06:53:17.325Z,1.70
2019-02-24T06:54:22.710Z,1.80
2019-02-24T06:55:27.805Z,1.80
2019-02-24T06:56:33.000Z,1.90
2019-02-24T06:57:38.521Z,2.00
2019-02-24T06:58:43.782Z,2.10
2019-02-24T06:59:49.984Z,2.20
2019-02-24T07:00:55.174Z,2.30
2019-02-24T07:02:00.424Z,2.30
2019-02-24T07:03:05.721Z,2.40
2019-02-24T07:04:11.039Z,2.40
2019-02-24T07:05:16.251Z,2.50
2019-02-24T07:06:21.797Z,2.50
2019-02-24T07:07:27.142Z,2.60
2019-02-24T07:08:32.412Z,2.70
2019-02-24T07:09:38.735Z,2.90
2019-02-24T07:10:44.103Z,3.20
2019-02-24T07:11:49.401Z,3.50
2019-02-24T07:12:54.688Z,3.70
2019-02-24T07:13:59.970Z,4.00
2019-02-24T07:15:05.445Z,4.30
2019-02-24T07:16:10.886Z,4.50
2019-02-24T07:17:16.152Z,4.80
2019-02-24T07:18:21.532Z,5.00
2019-02-24T07:19:26.864Z,5.30
2019-02-24T07:20:32.227Z,5.50
2019-02-24T07:21:37.600Z,5.70
2019-02-24T07:22:42.915Z,5.90
2019-02-24T07:23:48.198Z,6.10
2019-02-24T07:24:54.512Z,6.30
2019-02-24T07:26:00.937Z,6.40
2019-02-24T07:27:06.113Z,6.60
2019-02-24T07:28:11.298Z,6.80
2019-02-24T07:29:16.596Z,7.00
2019-02-24T07:30:23.755Z,7.10
2019-02-24T07:31:28.754Z,7.30
2019-02-24T07:32:34.063Z,7.50
2019-02-24T07:33:39.373Z,7.60
2019-02-24T07:34:44.622Z,7.70
2019-02-24T07:35:51.460Z,7.80
2019-02-24T07:36:56.722Z,7.90
2019-02-24T07:38:02.112Z,8.00
2019-02-24T07:39:07.732Z,8.10
2019-02-24T07:40:13.054Z,8.20
2019-02-24T07:41:18.343Z,8.30
2019-02-24T07:42:23.796Z,8.30
2019-02-24T07:43:29.104Z,8.40
2019-02-24T07:44:35.461Z,8.50
2019-02-24T07:45:40.764Z,8.50
2019-02-24T07:46:46.103Z,8.60
2019-02-24T07:47:51.430Z,8.70
2019-02-24T07:48:57.035Z,8.80
2019-02-24T07:50:06.215Z,8.90
2019-02-24T07:51:12.454Z,9.00
2019-02-24T07:52:20.403Z,9.10
2019-02-24T07:53:25.819Z,9.10
2019-02-24T07:54:31.112Z,9.20
2019-02-24T07:55:36.514Z,9.30
2019-02-24T07:56:41.947Z,9.40
2019-02-24T07:57:47.160Z,9.40
2019-02-24T07:58:52.521Z,9.40
2019-02-24T07:59:57.824Z,9.30
2019-02-24T08:01:04.794Z,9.30
2019-02-24T08:02:10.263Z,9.30
2019-02-24T08:03:15.662Z,9.40
2019-02-24T08:04:21.210Z,9.50
2019-02-24T08:05:26.556Z,9.50
2019-02-24T08:06:36.041Z,9.70
2019-02-24T08:07:43.082Z,9.70
2019-02-24T08:08:52.181Z,9.80
2019-02-24T08:09:57.336Z,9.80
2019-02-24T08:11:02.791Z,9.80
2019-02-24T08:12:08.294Z,9.80
2019-02-24T08:13:16.644Z,9.80
2019-02-24T08:14:22.302Z,9.80
2019-02-24T08:15:27.486Z,9.90
2019-02-24T08:16:32.826Z,9.90
2019-02-24T08:17:38.166Z,9.90
2019-02-24T08:18:49.249Z,9.90
2019-02-24T08:19:50.879Z,9.90
2019-02-24T08:20:56.339Z,10.10
2019-02-24T08:22:06.381Z,10.10
2019-02-24T08:23:11.744Z,10.30
2019-02-24T08:24:19.624Z,10.30
2019-02-24T08:25:24.938Z,10.40
2019-02-24T08:26:32.167Z,10.50
2019-02-24T08:27:37.637Z,10.50
2019-02-24T08:28:43.076Z,10.30
2019-02-24T08:29:48.402Z,10.30
2019-02-24T08:30:53.918Z,10.20
2019-02-24T08:31:59.274Z,10.30
2019-02-24T08:33:07.714Z,10.50
2019-02-24T08:34:12.974Z,10.50
2019-02-24T08:35:20.191Z,10.50
2019-02-24T08:36:25.622Z,10.50
2019-02-24T08:37:30.955Z,10.50
2019-02-24T08:38:40.475Z,10.60
2019-02-24T08:39:50.507Z,10.70
2019-02-24T08:40:55.797Z,10.80
2019-02-24T08:42:01.015Z,11.00
2019-02-24T08:43:06.444Z,11.30
2019-02-24T08:44:11.738Z,11.70
2019-02-24T08:45:16.934Z,12.00
2019-02-24T08:46:22.177Z,12.20
2019-02-24T08:47:31.481Z,12.40
2019-02-24T08:48:36.767Z,12.30
2019-02-24T08:49:42.025Z,12.40
2019-02-24T08:50:47.450Z,12.50
2019-02-24T08:51:53.812Z,12.60
2019-02-24T08:52:59.142Z,12.60
2019-02-24T08:54:06.482Z,12.70
2019-02-24T08:55:12.780Z,12.80
2019-02-24T08:56:18.063Z,12.80
2019-02-24T08:57:23.354Z,12.90
2019-02-24T08:58:31.688Z,13.00
2019-02-24T08:59:38.797Z,13.00
2019-02-24T09:00:50.962Z,13.00
2019-02-24T09:01:52.736Z,13.00
2019-02-24T09:02:58.178Z,13.00
2019-02-24T09:04:03.565Z,13.10
2019-02-24T09:05:08.751Z,13.10
2019-02-24T09:06:13.986Z,13.20
2019-02-24T09:07:19.455Z,13.30
2019-02-24T09:08:26.162Z,13.30
2019-02-24T09:09:31.877Z,13.30
2019-02-24T09:10:37.231Z,13.40
2019-02-24T09:11:42.694Z,13.30
2019-02-24T09:12:48.137Z,13.30
2019-02-24T09:13:53.412Z,13.30
2019-02-24T09:14:58.848Z,13.40
2019-02-24T09:16:04.360Z,13.40
2019-02-24T09:17:09.743Z,13.40
2019-02-24T09:18:15.292Z,13.30
2019-02-24T09:19:21.267Z,13.40
2019-02-24T09:20:27.411Z,13.50
2019-02-24T09:21:34.823Z,13.50
2019-02-24T09:23:23.858Z,13.60
2019-02-24T09:24:59.325Z,13.60
2019-02-24T09:28:33.374Z,13.60
2019-02-24T09:30:10.949Z,13.70
2019-02-24T09:31:35.009Z,13.80
2019-02-24T09:32:40.557Z,13.90
2019-02-24T09:33:46.074Z,13.90
2019-02-24T09:35:00.524Z,14.00
2019-02-24T09:36:07.849Z,14.20
2019-02-24T09:37:13.545Z,14.30
2019-02-24T09:38:19.143Z,14.40
2019-02-24T09:39:36.219Z,14.40
2019-02-24T09:40:43.143Z,14.50
2019-02-24T09:41:48.394Z,14.60
2019-02-24T09:43:02.333Z,14.60
2019-02-24T09:44:07.836Z,14.70
2019-02-24T09:45:15.166Z,14.80
2019-02-24T09:46:20.683Z,14.90
2019-02-24T09:47:26.119Z,14.90
2019-02-24T09:48:31.701Z,14.90
2019-02-24T09:49:37.165Z,14.80
2019-02-24T09:50:42.650Z,14.80
2019-02-24T09:51:47.981Z,14.80
2019-02-24T09:52:53.289Z,14.90
2019-02-24T09:53:58.736Z,15.00
2019-02-24T09:55:04.042Z,14.90
2019-02-24T09:56:09.266Z,14.90
2019-02-24T09:57:15.559Z,14.80
2019-02-24T09:58:21.156Z,14.90
2019-02-24T09:59:26.497Z,14.90
2019-02-24T10:00:31.809Z,14.90
2019-02-24T10:01:37.143Z,15.00
2019-02-24T10:02:42.500Z,15.10
2019-02-24T10:03:48.840Z,15.40
2019-02-24T10:04:54.061Z,15.50
2019-02-24T10:05:59.503Z,15.60
2019-02-24T10:07:04.910Z,15.70
2019-02-24T10:08:10.243Z,15.60
2019-02-24T10:09:15.539Z,15.50
2019-02-24T10:10:21.083Z,15.40
2019-02-24T10:11:26.486Z,15.40
2019-02-24T10:12:34.732Z,15.30
2019-02-24T10:13:40.060Z,15.30
2019-02-24T10:14:45.351Z,15.30
2019-02-24T10:15:50.957Z,15.20
2019-02-24T10:16:56.301Z,15.20
2019-02-24T10:18:06.600Z,15.20
2019-02-24T10:19:11.911Z,15.20
2019-02-24T10:20:17.620Z,15.20
2019-02-24T10:21:23.507Z,15.10
2019-02-24T10:22:28.771Z,15.10
2019-02-24T10:23:34.795Z,15.10
2019-02-24T10:24:40.181Z,15.20
2019-02-24T10:25:45.594Z,15.20
2019-02-24T10:26:50.824Z,15.20
2019-02-24T10:27:57.739Z,15.30
2019-02-24T10:29:03.172Z,15.40
2019-02-24T10:30:09.678Z,15.50
2019-02-24T10:31:19.931Z,15.60
2019-02-24T10:32:21.967Z,15.70
2019-02-24T10:33:27.272Z,15.70
2019-02-24T10:34:32.634Z,15.80
2019-02-24T10:35:37.937Z,15.80
2019-02-24T10:36:43.318Z,15.70
2019-02-24T10:37:48.956Z,15.60
2019-02-24T10:38:54.412Z,15.90
2019-02-24T10:39:59.775Z,15.80
2019-02-24T10:41:05.261Z,15.80
2019-02-24T10:42:10.672Z,16.00
2019-02-24T10:43:15.958Z,16.10
2019-02-24T10:44:21.353Z,16.20
2019-02-24T10:45:29.840Z,16.20
2019-02-24T10:46:35.153Z,16.20
2019-02-24T10:47:40.385Z,16.50
2019-02-24T10:48:45.656Z,16.80
2019-02-24T10:49:50.881Z,16.90
2019-02-24T10:50:56.867Z,17.20
2019-02-24T10:52:02.342Z,17.20
2019-02-24T10:53:07.766Z,17.50
2019-02-24T10:54:13.064Z,17.60
2019-02-24T10:55:19.500Z,17.80
2019-02-24T10:56:24.997Z,17.80
2019-02-24T10:57:30.379Z,17.70
2019-02-24T10:58:35.707Z,17.70
2019-02-24T10:59:41.034Z,17.60
2019-02-24T11:00:46.368Z,17.60
2019-02-24T11:01:51.802Z,17.70
2019-02-24T11:02:57.122Z,17.70
2019-02-24T11:04:02.279Z,17.70
2019-02-24T11:05:08.091Z,18.00
2019-02-24T11:06:13.615Z,18.20
2019-02-24T11:07:18.996Z,18.40
2019-02-24T11:08:24.313Z,18.60
2019-02-24T11:09:29.790Z,18.70
2019-02-24T11:10:35.057Z,18.70
2019-02-24T11:11:41.957Z,18.70
2019-02-24T11:12:47.545Z,18.50
2019-02-24T11:13:52.814Z,18.60
2019-02-24T11:14:58.103Z,18.80
2019-02-24T11:16:03.401Z,19.10
2019-02-24T11:17:08.798Z,19.30
2019-02-24T11:18:14.056Z,19.50
2019-02-24T11:19:19.387Z,19.60
2019-02-24T11:20:24.663Z,19.60
2019-02-24T11:21:30.131Z,19.60
2019-02-24T11:22:35.446Z,19.60
2019-02-24T11:23:40.795Z,19.70
2019-02-24T11:24:46.078Z,19.60
2019-02-24T11:25:51.351Z,19.60
2019-02-24T11:26:56.646Z,19.60
2019-02-24T11:28:01.996Z,19.50
2019-02-24T11:29:07.413Z,19.50
2019-02-24T11:30:12.898Z,19.60
2019-02-24T11:31:18.266Z,19.50
2019-02-24T11:32:23.668Z,19.40
2019-02-24T11:33:29.089Z,19.50
2019-02-24T11:34:36.037Z,19.60
2019-02-24T11:35:44.190Z,19.60
2019-02-24T11:36:49.649Z,19.70
2019-02-24T11:37:55.156Z,19.70
2019-02-24T11:39:00.578Z,19.60
2019-02-24T11:40:08.998Z,19.70
2019-02-24T11:41:14.495Z,19.80
2019-02-24T11:42:20.923Z,20.00
2019-02-24T11:43:27.406Z,19.90
2019-02-24T11:44:36.687Z,19.90
2019-02-24T11:45:43.260Z,19.90
2019-02-24T11:46:48.626Z,19.80
2019-02-24T11:47:55.816Z,19.80
2019-02-24T11:49:01.130Z,19.70
2019-02-24T11:50:07.549Z,19.80
2019-02-24T11:51:15.542Z,19.90
2019-02-24T11:52:20.786Z,20.00
2019-02-24T11:53:26.143Z,19.80
2019-02-24T11:54:31.517Z,19.60
2019-02-24T11:55:36.984Z,19.50
2019-02-24T11:56:42.241Z,19.50
2019-02-24T11:57:47.595Z,19.40
2019-02-24T11:58:52.903Z,19.50
2019-02-24T11:59:58.150Z,19.70
2019-02-24T12:01:03.382Z,20.00
2019-02-24T12:02:08.771Z,20.20
2019-02-24T12:03:14.111Z,20.20
2019-02-24T12:04:20.547Z,20.30
2019-02-24T12:05:25.958Z,20.40
2019-02-24T12:06:31.230Z,20.40
2019-02-24T12:07:38.764Z,20.30
2019-02-24T12:08:44.096Z,20.30
2019-02-24T12:09:49.763Z,20.10
2019-02-24T12:10:55.064Z,20.10
2019-02-24T12:12:00.272Z,20.00
2019-02-24T12:13:05.520Z,20.00
2019-02-24T12:14:10.819Z,19.90
2019-02-24T12:15:16.289Z,19.90
2019-02-24T12:16:21.550Z,19.80
2019-02-24T12:17:26.852Z,19.70
2019-02-24T12:18:32.181Z,19.70
2019-02-24T12:19:37.391Z,19.90
2019-02-24T12:20:42.690Z,19.90
2019-02-24T12:21:48.079Z,19.90
2019-02-24T12:22:55.266Z,19.90
2019-02-24T12:24:00.836Z,19.90
2019-02-24T12:25:07.286Z,19.80
2019-02-24T12:26:12.758Z,19.60
2019-02-24T12:27:18.048Z,19.70
2019-02-24T12:28:23.303Z,19.40
2019-02-24T12:29:28.529Z,19.50
2019-02-24T12:30:33.882Z,19.50
2019-02-24T12:31:39.165Z,19.50
2019-02-24T12:32:44.605Z,19.40
2019-02-24T12:33:50.140Z,19.60
2019-02-24T12:34:55.744Z,19.70
2019-02-24T12:36:01.060Z,20.00
2019-02-24T12:37:06.589Z,20.20
2019-02-24T12:38:14.303Z,20.40
2019-02-24T12:39:20.384Z,20.30
2019-02-24T12:40:25.817Z,20.20
2019-02-24T12:41:31.481Z,20.10
2019-02-24T12:42:36.966Z,19.90
2019-02-24T12:43:42.245Z,19.80
2019-02-24T12:44:47.632Z,19.70
2019-02-24T12:45:52.842Z,19.60
2019-02-24T12:47:00.426Z,19.60
2019-02-24T12:48:06.950Z,19.50
2019-02-24T12:49:12.648Z,19.40
2019-02-24T12:50:18.203Z,19.30
2019-02-24T12:51:23.559Z,19.00
2019-02-24T12:52:28.715Z,18.90
2019-02-24T12:53:34.087Z,18.80
2019-02-24T12:54:39.308Z,18.90
2019-02-24T12:55:44.660Z,19.00
2019-02-24T12:56:49.858Z,19.20
2019-02-24T12:57:55.458Z,19.30
2019-02-24T12:59:00.751Z,19.40
2019-02-24T13:00:09.546Z,19.50
2019-02-24T13:01:15.212Z,19.50
2019-02-24T13:02:20.544Z,19.60
2019-02-24T13:03:25.802Z,19.70
2019-02-24T13:04:31.042Z,19.60
2019-02-24T13:05:36.305Z,19.40
2019-02-24T13:06:41.441Z,19.50
2019-02-24T13:07:46.980Z,19.60
2019-02-24T13:08:52.214Z,19.80
2019-02-24T13:09:57.514Z,20.10
2019-02-24T13:11:02.623Z,20.20
2019-02-24T13:12:07.884Z,20.30
2019-02-24T13:13:13.487Z,20.50
2019-02-24T13:14:19.100Z,20.60
2019-02-24T13:15:24.242Z,20.60
2019-02-24T13:16:29.418Z,20.70
2019-02-24T13:17:35.000Z,20.70
2019-02-24T13:18:40.232Z,20.80
2019-02-24T13:19:45.450Z,20.90
2019-02-24T13:20:50.900Z,21.00
2019-02-24T13:21:56.173Z,21.00
2019-02-24T13:23:04.765Z,21.00
2019-02-24T13:24:09.927Z,21.00
2019-02-24T13:25:16.807Z,20.70
2019-02-24T13:26:22.100Z,20.60
2019-02-24T13:27:27.271Z,20.80
2019-02-24T13:28:34.041Z,20.70
2019-02-24T13:29:39.177Z,20.70
2019-02-24T13:30:46.677Z,20.70
2019-02-24T13:31:54.040Z,20.70
2019-02-24T13:32:59.578Z,20.80
2019-02-24T13:34:06.497Z,20.90
2019-02-24T13:35:11.860Z,20.80
2019-02-24T13:36:17.043Z,20.80
2019-02-24T13:37:22.646Z,20.60
2019-02-24T13:38:29.391Z,20.60
2019-02-24T13:39:34.626Z,20.50
2019-02-24T13:40:39.889Z,20.40
2019-02-24T13:41:47.904Z,20.20
2019-02-24T13:42:53.167Z,20.00
2019-02-24T13:43:58.415Z,19.90
2019-02-24T13:45:03.735Z,19.90
2019-02-24T13:46:10.074Z,20.00
2019-02-24T13:47:15.318Z,20.10
2019-02-24T13:48:20.545Z,20.10
2019-02-24T13:49:25.801Z,20.20
2019-02-24T13:50:31.057Z,20.30
2019-02-24T13:51:36.294Z,20.40
2019-02-24T13:52:41.631Z,20.30
2019-02-24T13:53:46.821Z,20.30
2019-02-24T13:54:52.073Z,20.20
2019-02-24T13:55:58.396Z,20.00
2019-02-24T13:57:04.157Z,19.90
2019-02-24T13:58:09.703Z,19.80
2019-02-24T13:59:14.889Z,19.80
2019-02-24T14:00:20.132Z,19.90
2019-02-24T14:01:25.734Z,19.90
2019-02-24T14:02:31.298Z,20.00
2019-02-24T14:03:39.482Z,20.00
2019-02-24T14:04:44.972Z,19.80
2019-02-24T14:05:50.488Z,19.70
2019-02-24T14:06:55.664Z,19.70
2019-02-24T14:08:00.935Z,19.70
2019-02-24T14:09:07.327Z,19.80
2019-02-24T14:10:13.263Z,19.90
2019-02-24T14:11:18.724Z,19.90
2019-02-24T14:12:24.163Z,19.90
2019-02-24T14:13:29.408Z,19.80
2019-02-24T14:14:35.046Z,19.70
2019-02-24T14:15:40.387Z,19.70
2019-02-24T14:16:45.717Z,19.60
2019-02-24T14:17:52.468Z,19.60
2019-02-24T14:18:57.698Z,19.40
2019-02-24T14:20:03.048Z,19.40
2019-02-24T14:21:08.331Z,19.30
2019-02-24T14:22:13.604Z,19.30
2019-02-24T14:23:18.907Z,19.30
2019-02-24T14:24:24.570Z,19.20
2019-02-24T14:25:29.716Z,19.20
2019-02-24T14:26:34.956Z,19.30
2019-02-24T14:27:40.284Z,19.40
2019-02-24T14:28:45.651Z,19.60
2019-02-24T14:29:50.884Z,19.60
2019-02-24T14:30:56.027Z,19.60
2019-02-24T14:32:01.275Z,19.60
2019-02-24T14:33:06.582Z,19.60